createdAt,value
2022-08-16T00:00:52.336Z,98302.30
2022-08-16T00:05:59.433Z,98303.16
2022-08-16T00:11:08.191Z,98309.52
2022-08-16T00:17:01.660Z,98298.75
2022-08-16T00:21:53.105Z,98293.58
2022-08-16T00:27:02.372Z,98294.09
2022-08-16T00:32:11.185Z,98291.80
2022-08-16T00:37:20.305Z,98298.69
2022-08-16T00:42:30.308Z,98298.46
2022-08-16T00:47:49.254Z,98303.65
2022-08-16T00:52:57.191Z,98308.02
2022-08-16T00:58:05.006Z,98308.82
2022-08-16T01:03:30.377Z,98302.89
2022-08-16T01:08:40.317Z,98302.34
2022-08-16T01:13:48.138Z,98305.52
2022-08-16T01:19:02.547Z,98306.75
2022-08-16T01:24:53.577Z,98311.48
2022-08-16T01:29:58.669Z,98315.35
2022-08-16T01:35:17.656Z,98315.92
2022-08-16T01:40:27.531Z,98311.50
2022-08-16T01:45:40.620Z,98315.41
2022-08-16T01:51:09.052Z,98313.38
2022-08-16T01:56:24.919Z,98313.88
2022-08-16T02:01:34.499Z,98301.03
2022-08-16T02:06:46.718Z,98308.10
2022-08-16T02:11:58.074Z,98307.27
2022-08-16T02:17:08.421Z,98306.72
2022-08-16T02:22:33.783Z,98312.35
2022-08-16T02:27:44.224Z,98316.06
2022-08-16T02:32:51.931Z,98315.52
2022-08-16T02:38:01.820Z,98310.64
2022-08-16T02:43:17.100Z,98313.05
2022-08-16T02:48:28.535Z,98308.76
2022-08-16T02:53:39.589Z,98299.40
2022-08-16T02:58:49.577Z,98307.20
2022-08-16T03:04:29.897Z,98311.40
2022-08-16T03:09:29.950Z,98311.06
2022-08-16T03:14:40.149Z,98314.13
2022-08-16T03:20:00.168Z,98316.23
2022-08-16T03:25:13.506Z,98311.14
2022-08-16T03:30:24.577Z,98304.71
2022-08-16T03:35:33.780Z,98308.52
2022-08-16T03:40:41.904Z,98322.51
2022-08-16T03:45:52.965Z,98327.08
2022-08-16T03:51:01.193Z,98333.79
2022-08-16T03:56:20.109Z,98335.02
2022-08-16T04:01:29.426Z,98336.88
2022-08-16T04:06:37.164Z,98340.16
2022-08-16T04:11:46.269Z,98347.16
2022-08-16T04:16:55.674Z,98349.73
2022-08-16T04:22:08.655Z,98351.71
2022-08-16T04:27:16.124Z,98351.64
2022-08-16T04:32:24.451Z,98355.02
2022-08-16T04:37:31.621Z,98356.12
2022-08-16T04:42:50.889Z,98353.80
2022-08-16T04:47:59.776Z,98352.88
2022-08-16T04:53:07.901Z,98353.77
2022-08-16T04:58:38.442Z,98353.23
2022-08-16T05:04:00.248Z,98363.08
2022-08-16T05:09:08.604Z,98367.58
2022-08-16T05:14:45.949Z,98370.47
2022-08-16T05:19:46.814Z,98371.16
2022-08-16T05:25:08.884Z,98363.85
2022-08-16T05:30:35.275Z,98368.64
2022-08-16T05:35:43.980Z,98366.73
2022-08-16T05:40:57.224Z,98367.48
2022-08-16T05:46:28.920Z,98372.56
2022-08-16T05:51:37.537Z,98370.90
2022-08-16T05:56:48.977Z,98373.38
2022-08-16T06:01:57.833Z,98375.38
2022-08-16T06:07:09.660Z,98376.84
2022-08-16T06:12:32.923Z,98373.95
2022-08-16T06:17:43.019Z,98382.11
2022-08-16T06:22:57.847Z,98397.59
2022-08-16T06:28:17.199Z,98402.66
2022-08-16T06:33:41.564Z,98400.19
2022-08-16T06:38:55.450Z,98404.42
2022-08-16T06:44:03.772Z,98406.00
2022-08-16T06:49:13.839Z,98409.17
2022-08-16T06:54:21.368Z,98417.30
2022-08-16T06:59:30.002Z,98421.05
2022-08-16T07:04:57.045Z,98410.16
2022-08-16T07:10:08.392Z,98417.89
2022-08-16T07:15:17.088Z,98431.41
2022-08-16T07:20:35.533Z,98441.17
2022-08-16T07:25:55.541Z,98441.88
2022-08-16T07:31:03.710Z,98445.51
2022-08-16T07:36:12.338Z,98439.18
2022-08-16T07:41:29.432Z,98438.85
2022-08-16T07:46:39.394Z,98439.10
2022-08-16T07:51:47.736Z,98436.12
2022-08-16T07:56:56.136Z,98435.84
2022-08-16T08:02:03.828Z,98436.89
2022-08-16T08:07:19.580Z,98439.76
2022-08-16T08:12:32.429Z,98440.86
2022-08-16T08:17:44.191Z,98440.35
2022-08-16T08:22:53.937Z,98441.81
2022-08-16T08:28:10.755Z,98446.14
2022-08-16T08:33:18.329Z,98444.03
2022-08-16T08:38:44.997Z,98440.38
2022-08-16T08:43:53.625Z,98442.34
2022-08-16T08:49:02.436Z,98436.06
2022-08-16T08:54:10.722Z,98439.69
2022-08-16T08:59:20.172Z,98445.58
2022-08-16T09:04:28.927Z,98444.64
2022-08-16T09:09:41.049Z,98449.89
2022-08-16T09:14:50.771Z,98452.12
2022-08-16T09:19:59.430Z,98453.55
2022-08-16T09:25:12.971Z,98444.13
2022-08-16T09:30:33.782Z,98445.64
2022-08-16T09:35:43.524Z,98451.61
2022-08-16T09:40:50.661Z,98449.00
2022-08-16T09:46:00.902Z,98447.64
2022-08-16T09:51:08.306Z,98440.36
2022-08-16T09:56:26.989Z,98437.54
2022-08-16T10:01:34.951Z,98435.20
2022-08-16T10:06:46.556Z,98434.77
2022-08-16T10:12:19.370Z,98438.45
2022-08-16T10:17:27.054Z,98446.25
2022-08-16T10:22:34.005Z,98445.16
2022-08-16T10:27:47.215Z,98450.53
2022-08-16T10:32:56.990Z,98448.78
2022-08-16T10:38:06.857Z,98456.38
2022-08-16T10:43:18.493Z,98453.74
2022-08-16T10:48:28.522Z,98445.35
2022-08-16T10:53:36.907Z,98442.16
2022-08-16T10:58:46.860Z,98442.12
2022-08-16T11:03:57.285Z,98430.61
2022-08-16T11:14:32.438Z,98418.67
2022-08-16T11:25:15.217Z,98406.85
2022-08-16T11:30:38.917Z,98405.25
2022-08-16T11:36:22.378Z,98413.35
2022-08-16T11:41:13.420Z,98415.86
2022-08-16T11:46:45.100Z,98406.13
2022-08-16T11:51:49.775Z,98400.41
2022-08-16T11:56:57.677Z,98411.20
2022-08-16T12:02:31.115Z,98400.67
2022-08-16T12:07:35.447Z,98386.72
2022-08-16T12:12:43.523Z,98376.23
2022-08-16T12:17:54.204Z,98369.23
2022-08-16T12:23:04.077Z,98366.08
2022-08-16T12:28:12.419Z,98366.04
2022-08-16T12:33:25.247Z,98370.50
2022-08-16T12:38:40.788Z,98381.79
2022-08-16T12:43:52.929Z,98399.34
2022-08-16T12:49:06.304Z,98399.78
2022-08-16T12:54:13.316Z,98390.50
2022-08-16T12:59:21.933Z,98384.79
2022-08-16T13:04:34.197Z,98378.74
2022-08-16T13:09:52.146Z,98378.15
2022-08-16T13:15:01.738Z,98374.20
2022-08-16T13:20:13.644Z,98379.23
2022-08-16T13:25:23.716Z,98387.17
2022-08-16T13:30:35.943Z,98391.23
2022-08-16T13:35:46.444Z,98401.81
2022-08-16T13:41:03.883Z,98404.70
2022-08-16T13:46:11.395Z,98403.45
2022-08-16T13:51:20.510Z,98400.27
2022-08-16T13:56:34.285Z,98401.58
2022-08-16T14:01:45.140Z,98405.25
2022-08-16T14:06:54.738Z,98405.09
2022-08-16T14:12:09.566Z,98387.59
2022-08-16T14:17:26.028Z,98381.36
2022-08-16T14:22:40.024Z,98380.45
2022-08-16T14:27:52.335Z,98390.50
2022-08-16T14:33:01.873Z,98390.45
2022-08-16T14:38:09.179Z,98390.83
2022-08-16T14:43:16.435Z,98391.81
2022-08-16T14:48:25.821Z,98389.60
2022-08-16T14:53:33.807Z,98397.38
2022-08-16T14:58:40.758Z,98402.77
2022-08-16T15:03:48.110Z,98405.86
2022-08-16T15:08:55.995Z,98408.29
2022-08-16T15:14:05.241Z,98414.39
2022-08-16T15:19:13.413Z,98410.83
2022-08-16T15:24:25.176Z,98426.93
2022-08-16T15:29:32.222Z,98433.05
2022-08-16T15:34:44.915Z,98432.84
2022-08-16T15:39:53.810Z,98430.21
2022-08-16T15:45:03.511Z,98422.09
2022-08-16T15:50:19.316Z,98433.65
2022-08-16T15:55:34.964Z,98435.37
2022-08-16T16:00:44.744Z,98439.04
2022-08-16T16:05:54.847Z,98446.92
2022-08-16T16:11:08.059Z,98444.33
2022-08-16T16:16:19.550Z,98434.83
2022-08-16T16:21:27.727Z,98446.00
2022-08-16T16:26:36.049Z,98439.41
2022-08-16T16:31:53.068Z,98439.73
2022-08-16T16:37:10.031Z,98438.61
2022-08-16T16:42:29.515Z,98437.35
2022-08-16T16:47:41.374Z,98441.05
2022-08-16T16:52:50.756Z,98444.36
2022-08-16T16:58:35.300Z,98451.64
2022-08-16T17:03:43.950Z,98455.91
2022-08-16T17:09:01.035Z,98456.20
2022-08-16T17:14:19.883Z,98457.48
2022-08-16T17:19:40.998Z,98460.70
2022-08-16T17:24:52.455Z,98469.96
2022-08-16T17:30:01.224Z,98479.84
2022-08-16T17:35:18.101Z,98479.59
2022-08-16T17:40:47.044Z,98477.74
2022-08-16T17:45:56.408Z,98484.20
2022-08-16T17:51:04.214Z,98481.15
2022-08-16T17:56:11.282Z,98484.73
2022-08-16T18:01:20.121Z,98481.22
2022-08-16T18:06:27.437Z,98481.66
2022-08-16T18:11:41.086Z,98486.27
2022-08-16T18:16:49.648Z,98490.14
2022-08-16T18:22:16.300Z,98485.85
2022-08-16T18:27:25.162Z,98487.46
2022-08-16T18:32:33.686Z,98490.80
2022-08-16T18:37:40.685Z,98494.80
2022-08-16T18:42:57.920Z,98497.42
2022-08-16T18:48:05.342Z,98501.55
2022-08-16T18:53:14.711Z,98502.73
2022-08-16T18:58:21.629Z,98499.63
2022-08-16T19:03:31.026Z,98506.04
2022-08-16T19:08:37.966Z,98502.27
2022-08-16T19:13:45.549Z,98502.77
2022-08-16T19:18:52.573Z,98512.07
2022-08-16T19:23:59.750Z,98518.77
2022-08-16T19:29:08.386Z,98519.70
2022-08-16T19:34:17.782Z,98520.45
2022-08-16T19:39:28.070Z,98521.27
2022-08-16T19:44:37.782Z,98518.14
2022-08-16T19:49:45.291Z,98527.05
2022-08-16T19:54:54.848Z,98532.70
2022-08-16T20:00:02.436Z,98542.68
2022-08-16T20:05:20.311Z,98545.62
2022-08-16T20:10:28.026Z,98553.63
2022-08-16T20:15:35.847Z,98559.83
2022-08-16T20:20:49.426Z,98567.99
2022-08-16T20:25:57.825Z,98574.27
2022-08-16T20:31:04.883Z,98572.98
2022-08-16T20:36:16.321Z,98571.06
2022-08-16T20:41:23.951Z,98575.73
2022-08-16T20:46:31.301Z,98581.27
2022-08-16T20:51:49.568Z,98591.03
2022-08-16T20:56:58.914Z,98594.07
2022-08-16T21:02:06.947Z,98600.06
2022-08-16T21:07:14.129Z,98597.23
2022-08-16T21:12:21.199Z,98602.37
2022-08-16T21:17:28.342Z,98599.92
2022-08-16T21:22:35.611Z,98606.06
2022-08-16T21:28:39.288Z,98604.31
2022-08-16T21:33:12.833Z,98607.81
2022-08-16T21:38:29.615Z,98607.70
2022-08-16T21:43:37.578Z,98607.31
2022-08-16T21:48:44.588Z,98608.18
2022-08-16T21:53:51.523Z,98605.54
2022-08-16T21:58:58.477Z,98597.77
2022-08-16T22:04:37.316Z,98591.19
2022-08-16T22:09:33.469Z,98591.48
2022-08-16T22:14:40.296Z,98583.23
2022-08-16T22:19:47.459Z,98582.73
2022-08-16T22:24:54.561Z,98582.73
2022-08-16T22:30:01.566Z,98581.49
2022-08-16T22:35:13.342Z,98583.85
2022-08-16T22:40:21.954Z,98579.27
2022-08-16T22:45:28.777Z,98579.80
2022-08-16T22:50:36.574Z,98579.36
2022-08-16T22:55:43.727Z,98573.17
2022-08-16T23:00:50.829Z,98571.85
2022-08-16T23:06:00.442Z,98567.86
2022-08-16T23:11:09.190Z,98572.60
2022-08-16T23:16:16.551Z,98579.70
2022-08-16T23:21:24.360Z,98577.95
2022-08-16T23:26:44.269Z,98572.27
2022-08-16T23:31:58.527Z,98564.73
2022-08-16T23:37:05.620Z,98560.42
2022-08-16T23:42:41.810Z,98562.11
2022-08-16T23:47:43.358Z,98567.98
2022-08-16T23:53:11.034Z,98564.02
2022-08-16T23:58:20.337Z,98562.58
